MRP weather

Marla Airport
South Australia, Australia

Public forecast

Using degrees Celsius for public forecast. Weather courtesy of forecast.io.

Closest aviation weather report (METAR) to Marla Airport

Closest report is Coober Pedy Airport, 117.7 nm (218.0 km) SSE. Retrieved 2019/10/20 07:00 UTC (19 minutes ago):

YCBP 200700Z AUTO 10010KT 9999 // NCD 28/M06 Q1022

Closest aviation forecast (TAF) to Marla Airport

Closest forecast is Alice Springs Airport, 212.3 nm (393.1 km) N. Retrieved 2019/10/20 06:00 UTC (1 hour ago):

TAF YBAS 200503Z 2006/2106 10014KT CAVOK FM201200 13006KT CAVOK FM202200 09014KT CAVOK